Pagrindinis puslapis
METAR-TAF:

METAR-TAF

Oro uostai :

Longjyrbienas, Norvegija

platuma: 78-15N, ilguma: 015-28E, Aukštis: 2 m

Dabartinis oras

Ataskaita buvo paskelbta 26 minutes, ne 06:50 UTC
Vėjas 11 kt iš Rytų/Pietryčių
Temperatūra -2°C
Drėgmė 63%
Slėgis 1001 hPa
Matomumas 10 km arba daugiau
Mažai debesys ne aukštis 3000 ft
Su prošvaistėmis ne aukštis 5000 ft
Liūtis kaimynystėje

METAR: ENSB 240650Z 11011KT 9999 VCSH FEW030 BKN050 M02/M08 Q1001 NOSIG RMK WIND 1400FT 09012KT

Laikas: 09:16 (07:16 UTC)

Prognozė

Ataskaita buvo paskelbta 2 valandos ir 16 minutes, ne 05:00 UTC
Prognozė galioja nuo 24 metu 06 UTC su 25 metu 06 UTC
Vėjas 12 kt iš Rytų/Pietryčių
Matomumas 10 km arba daugiau
Mažai debesys ne aukštis 2000 ft
Su prošvaistėmis ne aukštis 4000 ft
Tapsmas
nuo 24 metu 10 UTC su 24 metu 12 UTC
Vėjas 12 kt iš Šiaurės Vakarų

TAF: ENSB 240500Z 2406/2506 12012KT 9999 FEW020 BKN040 BECMG 2410/2412 32012KT

Orai ataskaitas ir orų prognozės (METAR, TAF).

turimą stotys yra geltonos ir raudonos taškus žemėlapyje.

Perkelti pele per norėdami pamatyti stoties vardą.

Tada spustelėkite, norėdami matyti oro stebėjimo ir prognozės.

Norėdami pakeisti žemėlapį: spustelėkite ant žalios mygtukų su juodo kryžiaus žemyn,; žalią mygtuką su brūkšneliu, jei norite nutolinti; arba žalių rodyklių gretimoms žemėlapius.


METAR-TAF: